createdAt,value
2023-05-09T00:01:22.931Z,10.05
2023-05-09T00:03:52.194Z,10.18
2023-05-09T00:06:19.943Z,10.90
2023-05-09T00:08:47.055Z,10.75
2023-05-09T00:11:13.861Z,11.18
2023-05-09T00:13:41.957Z,11.55
2023-05-09T00:16:09.318Z,10.68
2023-05-09T00:18:37.589Z,10.25
2023-05-09T00:21:05.241Z,11.13
2023-05-09T00:23:32.039Z,10.50
2023-05-09T00:25:59.532Z,10.00
2023-05-09T00:28:26.782Z,11.55
2023-05-09T00:30:53.843Z,10.20
2023-05-09T00:33:20.833Z,10.52
2023-05-09T00:35:47.831Z,11.18
2023-05-09T00:38:15.178Z,10.88
2023-05-09T00:40:42.004Z,11.00
2023-05-09T00:43:08.871Z,10.00
2023-05-09T00:45:35.784Z,10.43
2023-05-09T00:48:03.316Z,11.20
2023-05-09T00:50:31.141Z,10.32
2023-05-09T00:52:58.744Z,10.63
2023-05-09T00:55:27.331Z,10.15
2023-05-09T00:57:54.074Z,10.45
2023-05-09T01:00:21.550Z,11.63
2023-05-09T01:02:53.469Z,11.60
2023-05-09T01:05:21.617Z,10.73
2023-05-09T01:08:00.627Z,11.80
2023-05-09T01:10:42.429Z,11.18
2023-05-09T01:13:15.081Z,14.82
2023-05-09T01:16:06.248Z,17.02
2023-05-09T01:18:57.008Z,12.15
2023-05-09T01:21:30.553Z,10.95
2023-05-09T01:24:00.815Z,10.93
2023-05-09T01:26:52.341Z,10.98
2023-05-09T01:29:36.640Z,10.52
2023-05-09T01:32:10.010Z,10.57
2023-05-09T01:34:38.878Z,9.90
2023-05-09T01:37:07.474Z,10.60
2023-05-09T01:39:38.586Z,11.45
2023-05-09T01:42:08.830Z,9.80
2023-05-09T01:44:42.589Z,10.15
2023-05-09T01:47:10.916Z,9.85
2023-05-09T01:49:40.215Z,10.95
2023-05-09T01:52:16.918Z,10.60
2023-05-09T01:54:45.951Z,10.57
2023-05-09T01:57:13.699Z,10.65
2023-05-09T01:59:43.137Z,11.15
2023-05-09T02:02:10.462Z,10.80
2023-05-09T02:04:39.383Z,11.20
2023-05-09T02:07:07.595Z,10.80
2023-05-09T02:09:34.853Z,11.60
2023-05-09T02:12:02.218Z,11.48
2023-05-09T02:14:29.887Z,11.55
2023-05-09T02:16:56.867Z,10.88
2023-05-09T02:19:24.310Z,11.40
2023-05-09T02:21:51.212Z,12.40
2023-05-09T02:24:18.135Z,11.43
2023-05-09T02:26:45.573Z,11.10
2023-05-09T02:29:12.921Z,10.75
2023-05-09T02:31:41.546Z,11.00
2023-05-09T02:34:09.800Z,11.90
2023-05-09T02:36:37.946Z,11.77
2023-05-09T02:39:05.030Z,12.48
2023-05-09T02:41:31.985Z,12.32
2023-05-09T02:43:58.866Z,12.68
2023-05-09T02:46:26.187Z,13.07
2023-05-09T02:48:53.583Z,12.60
2023-05-09T02:51:20.444Z,12.95
2023-05-09T02:53:47.267Z,13.13
2023-05-09T02:56:14.315Z,12.60
2023-05-09T02:58:41.256Z,13.05
2023-05-09T03:01:09.860Z,12.68
2023-05-09T03:03:38.345Z,12.70
2023-05-09T03:06:06.481Z,12.82
2023-05-09T03:08:33.454Z,13.35
2023-05-09T03:11:00.856Z,12.63
2023-05-09T03:13:28.289Z,13.15
2023-05-09T03:15:57.122Z,12.30
2023-05-09T03:18:24.229Z,12.90
2023-05-09T03:20:51.562Z,12.23
2023-05-09T03:23:19.229Z,12.15
2023-05-09T03:25:46.041Z,12.60
2023-05-09T03:28:12.804Z,12.25
2023-05-09T03:30:39.986Z,13.00
2023-05-09T03:33:10.633Z,13.30
2023-05-09T03:35:37.400Z,13.88
2023-05-09T03:38:05.794Z,12.93
2023-05-09T03:40:32.804Z,13.57
2023-05-09T03:43:06.572Z,14.90
2023-05-09T03:45:33.604Z,14.00
2023-05-09T03:48:01.181Z,13.60
2023-05-09T03:50:29.395Z,13.68
2023-05-09T03:52:58.101Z,14.10
2023-05-09T03:55:26.304Z,13.88
2023-05-09T03:57:54.044Z,13.45
2023-05-09T04:00:22.757Z,13.05
2023-05-09T04:03:00.629Z,13.10
2023-05-09T04:05:36.299Z,12.90
2023-05-09T04:08:05.264Z,13.10
2023-05-09T04:10:32.850Z,12.95
2023-05-09T04:12:59.896Z,12.93
2023-05-09T04:15:26.785Z,12.73
2023-05-09T04:17:54.302Z,13.38
2023-05-09T04:20:21.183Z,13.63
2023-05-09T04:22:48.127Z,12.95
2023-05-09T04:25:17.120Z,13.98
2023-05-09T04:27:45.581Z,12.82
2023-05-09T04:30:12.947Z,12.77
2023-05-09T04:32:40.636Z,14.45
2023-05-09T04:35:09.130Z,13.05
2023-05-09T04:37:40.282Z,16.48
2023-05-09T04:40:09.411Z,14.93
2023-05-09T04:42:46.886Z,15.63
2023-05-09T04:45:16.493Z,16.80
2023-05-09T04:47:44.343Z,18.33
2023-05-09T04:50:11.765Z,16.58
2023-05-09T04:52:38.736Z,16.42
2023-05-09T04:55:06.528Z,17.17
2023-05-09T04:57:41.812Z,15.88
2023-05-09T05:00:11.731Z,16.83
2023-05-09T05:02:39.572Z,18.38
2023-05-09T05:05:12.215Z,16.60
2023-05-09T05:07:42.537Z,15.43
2023-05-09T05:10:11.575Z,15.85
2023-05-09T05:12:41.126Z,15.02
2023-05-09T05:15:11.574Z,16.88
2023-05-09T05:17:39.629Z,13.70
2023-05-09T05:20:10.560Z,14.85
2023-05-09T05:22:41.672Z,16.70
2023-05-09T05:25:08.851Z,14.25
2023-05-09T05:27:36.960Z,15.50
2023-05-09T05:30:04.749Z,15.98
2023-05-09T05:32:31.879Z,13.60
2023-05-09T05:35:02.617Z,15.73
2023-05-09T05:37:29.801Z,15.00
2023-05-09T05:39:56.893Z,14.85
2023-05-09T05:42:25.191Z,14.63
2023-05-09T05:44:51.996Z,15.38
2023-05-09T05:47:18.856Z,16.85
2023-05-09T05:49:46.293Z,16.77
2023-05-09T05:52:13.261Z,15.52
2023-05-09T05:54:40.702Z,15.77
2023-05-09T05:57:08.351Z,16.63
2023-05-09T05:59:36.538Z,15.65
2023-05-09T06:02:03.512Z,16.85
2023-05-09T06:04:31.126Z,17.08
2023-05-09T06:06:59.211Z,15.27
2023-05-09T06:09:27.347Z,16.48
2023-05-09T06:11:54.427Z,16.08
2023-05-09T06:14:21.328Z,17.02
2023-05-09T06:16:48.690Z,17.00
2023-05-09T06:19:15.761Z,18.23
2023-05-09T06:21:42.987Z,15.43
2023-05-09T06:24:14.420Z,15.88
2023-05-09T06:26:51.250Z,17.38
2023-05-09T06:29:18.095Z,17.00
2023-05-09T06:31:45.575Z,19.23
2023-05-09T06:34:12.555Z,18.08
2023-05-09T06:36:39.469Z,18.27
2023-05-09T06:39:06.387Z,18.73
2023-05-09T06:41:33.257Z,17.70
2023-05-09T06:44:02.708Z,18.27
2023-05-09T06:46:29.803Z,17.83
2023-05-09T06:48:56.937Z,18.13
2023-05-09T06:51:25.060Z,16.40
2023-05-09T06:53:55.648Z,16.83
2023-05-09T06:56:23.303Z,17.00
2023-05-09T06:58:50.522Z,17.88
2023-05-09T07:01:17.886Z,17.10
2023-05-09T07:03:47.918Z,16.92
2023-05-09T07:06:14.836Z,16.48
2023-05-09T07:08:41.763Z,17.50
2023-05-09T07:11:08.951Z,18.38
2023-05-09T07:13:36.707Z,17.98
2023-05-09T07:16:04.794Z,17.75
2023-05-09T07:18:31.848Z,17.23
2023-05-09T07:21:00.414Z,16.13
2023-05-09T07:23:27.453Z,16.48
2023-05-09T07:25:58.891Z,16.10
2023-05-09T07:28:26.134Z,13.98
2023-05-09T07:30:55.888Z,15.13
2023-05-09T07:33:23.993Z,14.65
2023-05-09T07:38:20.356Z,15.27
2023-05-09T07:40:47.527Z,15.32
2023-05-09T07:43:18.170Z,15.75
2023-05-09T07:45:47.438Z,15.98
2023-05-09T07:48:18.401Z,14.93
2023-05-09T07:50:45.456Z,15.52
2023-05-09T07:53:12.261Z,14.77
2023-05-09T07:55:39.026Z,15.98
2023-05-09T07:58:06.080Z,16.73
2023-05-09T08:00:36.188Z,16.67
2023-05-09T08:03:03.510Z,16.65
2023-05-09T08:05:30.903Z,16.85
2023-05-09T08:07:57.834Z,15.70
2023-05-09T08:10:25.052Z,16.60
2023-05-09T08:12:52.464Z,14.02
2023-05-09T08:15:19.315Z,13.98
2023-05-09T08:17:46.617Z,14.90
2023-05-09T08:20:13.916Z,14.55
2023-05-09T08:22:44.782Z,15.20
2023-05-09T08:25:25.261Z,14.70
2023-05-09T08:27:53.200Z,14.75
2023-05-09T08:30:20.934Z,16.92
2023-05-09T08:32:47.796Z,16.23
2023-05-09T08:35:14.913Z,15.98
2023-05-09T08:37:42.238Z,16.23
2023-05-09T08:40:10.224Z,17.50
2023-05-09T08:42:40.779Z,17.58
2023-05-09T08:45:10.855Z,17.20
2023-05-09T08:47:39.312Z,16.50
2023-05-09T08:50:08.093Z,16.55
2023-05-09T08:52:38.685Z,15.63
2023-05-09T08:55:09.701Z,17.20
2023-05-09T08:57:37.256Z,21.20
2023-05-09T09:00:06.576Z,18.00
2023-05-09T09:02:34.243Z,16.65
2023-05-09T09:05:02.972Z,17.05
2023-05-09T09:07:31.334Z,17.33
2023-05-09T09:09:59.652Z,16.98
2023-05-09T09:12:26.773Z,17.05
2023-05-09T09:14:56.181Z,15.65
2023-05-09T09:17:28.142Z,16.15
2023-05-09T09:19:59.856Z,15.70
2023-05-09T09:22:33.835Z,16.35
2023-05-09T09:25:02.049Z,15.52
2023-05-09T09:27:28.975Z,16.67
2023-05-09T09:29:56.092Z,15.32
2023-05-09T09:32:34.188Z,19.95
2023-05-09T09:35:07.195Z,17.30
2023-05-09T09:37:35.785Z,15.90
2023-05-09T09:40:03.804Z,16.52
2023-05-09T09:42:44.919Z,16.70
2023-05-09T09:45:13.842Z,17.23
2023-05-09T09:47:43.074Z,15.52
2023-05-09T09:50:15.535Z,19.20
2023-05-09T09:52:54.140Z,17.65
2023-05-09T09:55:22.475Z,15.75
2023-05-09T09:57:49.383Z,15.95
2023-05-09T10:00:18.364Z,16.98
2023-05-09T10:02:56.130Z,15.63
2023-05-09T10:05:28.517Z,15.60
2023-05-09T10:08:00.086Z,15.35
2023-05-09T10:10:31.509Z,15.05
2023-05-09T10:13:09.572Z,14.63
2023-05-09T10:15:49.039Z,12.82
2023-05-09T10:18:19.990Z,12.65
2023-05-09T10:20:47.286Z,12.05
2023-05-09T10:23:16.670Z,11.55
2023-05-09T10:26:03.209Z,10.70
2023-05-09T10:28:34.332Z,10.02
2023-05-09T10:31:13.275Z,10.65
2023-05-09T10:33:51.063Z,10.82
2023-05-09T10:36:23.900Z,9.73
2023-05-09T10:38:54.196Z,10.90
2023-05-09T10:41:25.644Z,9.65
2023-05-09T10:43:53.092Z,10.32
2023-05-09T10:46:24.048Z,12.02
2023-05-09T10:48:51.290Z,11.15
2023-05-09T10:51:18.602Z,10.73
2023-05-09T10:53:48.053Z,10.60
2023-05-09T10:56:35.776Z,11.45
2023-05-09T10:59:02.979Z,10.25
2023-05-09T11:01:39.026Z,8.48
2023-05-09T11:04:14.605Z,9.30
2023-05-09T11:06:45.345Z,7.20
2023-05-09T11:09:34.726Z,7.80
2023-05-09T11:12:10.135Z,6.60
2023-05-09T11:14:45.578Z,6.50
2023-05-09T11:17:36.337Z,6.25
2023-05-09T11:20:05.896Z,6.70
2023-05-09T11:22:41.407Z,6.88
2023-05-09T11:25:09.312Z,7.00
2023-05-09T11:27:41.118Z,8.07
2023-05-09T11:30:09.018Z,6.43
2023-05-09T11:32:58.913Z,6.40
2023-05-09T11:35:28.942Z,5.53
2023-05-09T11:38:05.671Z,6.10
2023-05-09T11:40:34.019Z,6.03
2023-05-09T11:43:01.765Z,5.10
2023-05-09T11:45:31.272Z,5.38
2023-05-09T11:50:25.821Z,5.90
2023-05-09T11:52:53.574Z,5.85
2023-05-09T11:55:30.242Z,6.93
2023-05-09T11:57:57.418Z,7.82
2023-05-09T12:00:26.271Z,10.30
2023-05-09T12:02:53.722Z,9.02
2023-05-09T12:05:22.855Z,8.52
2023-05-09T12:07:50.332Z,9.73
2023-05-09T12:10:20.457Z,7.25
2023-05-09T12:12:49.839Z,8.68
2023-05-09T12:15:17.665Z,10.90
2023-05-09T12:17:47.122Z,9.07
2023-05-09T12:20:15.144Z,8.38
2023-05-09T12:22:53.488Z,8.57
2023-05-09T12:25:20.256Z,7.00
2023-05-09T12:27:47.047Z,6.80
2023-05-09T12:30:16.154Z,7.93
2023-05-09T12:32:43.875Z,7.07
2023-05-09T12:35:11.310Z,6.38
2023-05-09T12:37:38.597Z,7.43
2023-05-09T12:40:13.071Z,6.03
2023-05-09T12:42:44.096Z,4.72
2023-05-09T12:45:11.581Z,5.18
2023-05-09T12:47:39.156Z,4.93
2023-05-09T12:50:07.171Z,4.88
2023-05-09T12:52:41.653Z,4.72
2023-05-09T12:55:15.306Z,3.92
2023-05-09T12:57:42.954Z,4.47
2023-05-09T13:00:12.106Z,5.03
2023-05-09T13:02:42.077Z,4.03
2023-05-09T13:05:10.822Z,3.60
2023-05-09T13:07:52.794Z,3.67
2023-05-09T13:10:24.253Z,4.43
2023-05-09T13:12:52.064Z,4.38
2023-05-09T13:15:21.054Z,4.95
2023-05-09T13:17:52.082Z,4.93
2023-05-09T13:20:19.878Z,4.32
2023-05-09T13:22:46.862Z,4.80
2023-05-09T13:25:13.853Z,7.90
2023-05-09T13:27:40.649Z,5.45
2023-05-09T13:30:08.493Z,5.30
2023-05-09T13:32:36.597Z,4.75
2023-05-09T13:35:06.759Z,5.93
2023-05-09T13:37:36.394Z,5.90
2023-05-09T13:40:04.376Z,6.60
2023-05-09T13:42:31.235Z,6.35
2023-05-09T13:44:58.021Z,5.60
2023-05-09T13:47:24.999Z,5.55
2023-05-09T13:49:52.286Z,4.75
2023-05-09T13:52:19.435Z,4.32
2023-05-09T13:54:46.533Z,7.55
2023-05-09T13:57:13.400Z,5.85
2023-05-09T13:59:43.506Z,7.35
2023-05-09T14:02:13.157Z,6.55
2023-05-09T14:04:39.994Z,7.05
2023-05-09T14:07:09.425Z,6.35
2023-05-09T14:12:07.053Z,5.35
2023-05-09T14:14:34.037Z,6.35
2023-05-09T14:17:01.410Z,7.25
2023-05-09T14:19:30.323Z,7.55
2023-05-09T14:21:59.598Z,7.85
2023-05-09T14:24:26.400Z,6.90
2023-05-09T14:26:53.156Z,5.45
2023-05-09T14:29:19.974Z,7.03
2023-05-09T14:31:46.643Z,7.75
2023-05-09T14:34:13.290Z,7.15
2023-05-09T14:36:40.181Z,7.80
2023-05-09T14:39:07.492Z,8.30
2023-05-09T14:41:34.196Z,7.93
2023-05-09T14:44:00.968Z,8.55
2023-05-09T14:46:27.955Z,8.73
2023-05-09T14:48:54.752Z,8.77
2023-05-09T14:51:21.834Z,5.63
2023-05-09T14:53:48.570Z,5.82
2023-05-09T14:56:15.513Z,4.93
2023-05-09T14:58:42.491Z,7.47
2023-05-09T15:01:09.258Z,5.07
2023-05-09T15:03:36.159Z,3.58
2023-05-09T15:06:04.312Z,5.28
2023-05-09T15:08:31.387Z,3.78
2023-05-09T15:10:58.106Z,5.05
2023-05-09T15:13:32.606Z,3.20
2023-05-09T15:16:02.690Z,2.53
2023-05-09T15:18:49.860Z,4.00
2023-05-09T15:21:23.770Z,2.85
2023-05-09T15:23:53.845Z,4.38
2023-05-09T15:26:21.383Z,4.60
2023-05-09T15:28:48.965Z,3.33
2023-05-09T15:31:17.616Z,2.55
2023-05-09T15:36:39.514Z,2.25
2023-05-09T15:39:12.263Z,2.25
2023-05-09T15:41:39.764Z,2.20
2023-05-09T15:44:10.111Z,2.33
2023-05-09T15:46:43.142Z,2.85
2023-05-09T15:49:11.592Z,2.20
2023-05-09T15:51:42.449Z,3.30
2023-05-09T15:54:09.805Z,2.90
2023-05-09T15:56:42.567Z,3.40
2023-05-09T15:59:17.381Z,3.60
2023-05-09T16:01:44.513Z,3.70
2023-05-09T16:04:33.301Z,3.60
2023-05-09T16:07:09.209Z,3.58
2023-05-09T16:09:39.837Z,4.32
2023-05-09T16:12:12.988Z,4.38
2023-05-09T16:14:47.654Z,3.00
2023-05-09T16:17:16.639Z,3.05
2023-05-09T16:19:53.569Z,4.47
2023-05-09T16:22:28.184Z,4.63
2023-05-09T16:24:58.336Z,4.03
2023-05-09T16:27:32.407Z,3.55
2023-05-09T16:30:02.232Z,5.80
2023-05-09T16:32:32.736Z,5.30
2023-05-09T16:35:18.449Z,5.10
2023-05-09T16:37:48.615Z,2.47
2023-05-09T16:40:17.960Z,4.63
2023-05-09T16:45:19.078Z,1.77
2023-05-09T16:47:49.323Z,3.08
2023-05-09T16:50:19.751Z,5.05
2023-05-09T16:53:02.141Z,1.85
2023-05-09T16:55:34.577Z,2.40
2023-05-09T16:58:09.756Z,2.35
2023-05-09T17:00:43.169Z,3.97
2023-05-09T17:03:19.315Z,2.22
2023-05-09T17:06:17.960Z,3.90
2023-05-09T17:08:56.149Z,2.35
2023-05-09T17:11:30.892Z,2.55
2023-05-09T17:14:20.052Z,2.92
2023-05-09T17:17:00.999Z,3.60
2023-05-09T17:19:31.980Z,2.45
2023-05-09T17:22:09.220Z,1.92
2023-05-09T17:24:47.095Z,1.65
2023-05-09T17:27:37.127Z,2.47
2023-05-09T17:30:16.107Z,1.65
2023-05-09T17:32:49.148Z,3.85
2023-05-09T17:38:11.002Z,2.30
2023-05-09T17:40:54.012Z,2.30
2023-05-09T17:43:25.051Z,2.30
2023-05-09T17:45:55.325Z,3.00
2023-05-09T17:48:23.486Z,2.80
2023-05-09T17:50:51.291Z,3.38
2023-05-09T17:53:18.898Z,3.88
2023-05-09T17:55:46.027Z,3.80
2023-05-09T17:58:15.061Z,5.15
2023-05-09T18:00:42.252Z,4.82
2023-05-09T18:03:09.346Z,4.00
2023-05-09T18:05:36.245Z,3.22
2023-05-09T18:08:06.623Z,1.80
2023-05-09T18:10:33.336Z,1.65
2023-05-09T18:13:12.420Z,0.95
2023-05-09T18:15:39.319Z,1.10
2023-05-09T18:18:09.868Z,0.75
2023-05-09T18:20:38.214Z,1.75
2023-05-09T18:23:10.819Z,0.80
2023-05-09T18:25:38.732Z,1.05
2023-05-09T18:28:05.571Z,0.57
2023-05-09T18:30:32.568Z,1.15
2023-05-09T18:33:01.554Z,0.90
2023-05-09T18:35:28.610Z,1.35
2023-05-09T18:37:58.459Z,0.60
2023-05-09T18:40:37.198Z,1.33
2023-05-09T18:45:57.204Z,1.23
2023-05-09T18:48:29.258Z,2.85
2023-05-09T18:50:56.462Z,1.65
2023-05-09T18:53:32.774Z,1.80
2023-05-09T18:56:26.602Z,1.77
2023-05-09T18:58:54.040Z,1.58
2023-05-09T19:01:24.556Z,1.38
2023-05-09T19:03:54.594Z,1.30
2023-05-09T19:06:22.265Z,1.60
2023-05-09T19:08:54.761Z,1.88
2023-05-09T19:11:22.401Z,1.35
2023-05-09T19:13:49.682Z,1.92
2023-05-09T19:16:36.514Z,1.30
2023-05-09T19:19:05.927Z,0.90
2023-05-09T19:21:34.304Z,0.75
2023-05-09T19:24:23.545Z,0.47
2023-05-09T19:26:59.839Z,0.65
2023-05-09T19:29:26.779Z,0.80
2023-05-09T19:32:04.338Z,0.70
2023-05-09T19:34:31.460Z,0.98
2023-05-09T19:36:58.242Z,0.90
2023-05-09T19:39:25.349Z,1.10
2023-05-09T19:41:52.391Z,1.15
2023-05-09T19:44:19.203Z,1.63
2023-05-09T19:46:46.533Z,0.95
2023-05-09T19:49:30.454Z,0.90
2023-05-09T19:51:57.487Z,0.73
2023-05-09T19:57:32.449Z,1.02
2023-05-09T19:59:59.472Z,1.08
2023-05-09T20:02:29.382Z,1.10
2023-05-09T20:05:02.152Z,1.05
2023-05-09T20:07:31.211Z,0.45
2023-05-09T20:09:58.025Z,1.45
2023-05-09T20:12:43.490Z,0.95
2023-05-09T20:15:15.481Z,2.33
2023-05-09T20:17:47.211Z,1.38
2023-05-09T20:20:14.242Z,1.70
2023-05-09T20:22:41.244Z,2.75
2023-05-09T20:25:08.312Z,2.83
2023-05-09T20:27:37.659Z,1.88
2023-05-09T20:30:05.184Z,2.03
2023-05-09T20:32:45.140Z,2.40
2023-05-09T20:35:12.297Z,2.10
2023-05-09T20:37:42.154Z,2.55
2023-05-09T20:40:14.685Z,1.55
2023-05-09T20:42:56.476Z,1.08
2023-05-09T20:45:34.235Z,1.27
2023-05-09T20:48:10.723Z,1.38
2023-05-09T20:50:37.700Z,1.33
2023-05-09T20:53:08.240Z,1.35
2023-05-09T20:55:38.063Z,1.48
2023-05-09T20:58:07.616Z,2.65
2023-05-09T21:00:35.909Z,1.10
2023-05-09T21:03:03.061Z,0.73
2023-05-09T21:05:30.052Z,0.68
2023-05-09T21:07:57.223Z,0.52
2023-05-09T21:10:24.292Z,0.55
2023-05-09T21:12:51.227Z,0.52
2023-05-09T21:15:18.248Z,0.70
2023-05-09T21:17:45.405Z,1.00
2023-05-09T21:20:14.980Z,0.40
2023-05-09T21:22:45.481Z,0.30
2023-05-09T21:25:12.716Z,0.40
2023-05-09T21:27:39.752Z,0.70
2023-05-09T21:30:07.830Z,0.70
2023-05-09T21:32:35.258Z,3.83
2023-05-09T21:35:04.203Z,0.32
2023-05-09T21:37:38.489Z,0.32
2023-05-09T21:40:06.599Z,0.30
2023-05-09T21:42:34.353Z,0.32
2023-05-09T21:45:01.632Z,0.55
2023-05-09T21:47:28.938Z,0.63
2023-05-09T21:49:57.330Z,0.45
2023-05-09T21:52:24.346Z,0.40
2023-05-09T21:54:51.411Z,0.45
2023-05-09T21:57:18.390Z,0.40
2023-05-09T21:59:45.327Z,0.43
2023-05-09T22:02:12.340Z,0.32
2023-05-09T22:04:40.252Z,0.30
2023-05-09T22:07:07.239Z,0.40
2023-05-09T22:09:34.088Z,0.50
2023-05-09T22:12:00.849Z,0.20
2023-05-09T22:14:27.762Z,0.88
2023-05-09T22:16:54.469Z,0.85
2023-05-09T22:19:21.363Z,0.85
2023-05-09T22:21:48.990Z,1.48
2023-05-09T22:24:16.190Z,1.05
2023-05-09T22:26:43.135Z,0.63
2023-05-09T22:29:10.154Z,0.30
2023-05-09T22:31:37.006Z,0.20
2023-05-09T22:34:03.950Z,0.15
2023-05-09T22:36:31.959Z,0.10
2023-05-09T22:38:58.633Z,0.00
2023-05-09T22:41:25.326Z,0.00
2023-05-09T22:43:52.026Z,0.00
2023-05-09T22:46:19.134Z,0.00
2023-05-09T22:48:48.273Z,0.00
2023-05-09T22:51:15.192Z,0.00
2023-05-09T22:53:41.951Z,0.00
2023-05-09T22:56:09.647Z,0.00
2023-05-09T22:58:36.672Z,0.00
2023-05-09T23:01:03.552Z,0.00
2023-05-09T23:03:30.659Z,0.00
2023-05-09T23:05:57.417Z,0.00
2023-05-09T23:08:24.217Z,0.00
2023-05-09T23:10:50.967Z,0.00
2023-05-09T23:13:17.843Z,0.00
2023-05-09T23:15:44.672Z,0.00
2023-05-09T23:18:12.233Z,0.00
2023-05-09T23:20:39.110Z,0.00
2023-05-09T23:23:06.102Z,0.00
2023-05-09T23:25:32.924Z,0.00
2023-05-09T23:27:59.754Z,0.00
2023-05-09T23:30:26.719Z,0.00
2023-05-09T23:32:53.830Z,0.00
2023-05-09T23:35:21.262Z,0.05
2023-05-09T23:37:48.534Z,0.00
2023-05-09T23:40:15.592Z,0.00
2023-05-09T23:42:42.816Z,0.00
2023-05-09T23:45:10.391Z,0.00
2023-05-09T23:47:37.239Z,0.00
2023-05-09T23:50:04.329Z,0.00
2023-05-09T23:52:31.657Z,0.00
2023-05-09T23:54:58.541Z,0.10
2023-05-09T23:57:27.706Z,0.00
2023-05-09T23:59:54.424Z,0.00
